sensor_id;sensor_type;location;lat;lon;timestamp;P1;durP1;ratioP1;P2;durP2;ratioP2
4409;SDS011;2218;51.408;7.208;2022-08-19T00:00:37;2.40;;;2.30;;
4409;SDS011;2218;51.408;7.208;2022-08-19T00:03:05;2.10;;;2.00;;
4409;SDS011;2218;51.408;7.208;2022-08-19T00:05:33;2.30;;;2.20;;
4409;SDS011;2218;51.408;7.208;2022-08-19T00:08:01;2.47;;;2.37;;
4409;SDS011;2218;51.408;7.208;2022-08-19T00:10:29;2.30;;;2.20;;
4409;SDS011;2218;51.408;7.208;2022-08-19T00:12:56;2.37;;;2.27;;
4409;SDS011;2218;51.408;7.208;2022-08-19T00:15:23;2.33;;;2.23;;
4409;SDS011;2218;51.408;7.208;2022-08-19T00:17:50;2.27;;;2.17;;
4409;SDS011;2218;51.408;7.208;2022-08-19T00:20:18;2.23;;;2.13;;
4409;SDS011;2218;51.408;7.208;2022-08-19T00:22:46;2.17;;;2.07;;
4409;SDS011;2218;51.408;7.208;2022-08-19T00:25:15;2.20;;;2.10;;
4409;SDS011;2218;51.408;7.208;2022-08-19T00:27:43;2.40;;;2.30;;
4409;SDS011;2218;51.408;7.208;2022-08-19T00:30:11;2.17;;;2.07;;
4409;SDS011;2218;51.408;7.208;2022-08-19T00:32:38;2.03;;;1.93;;
4409;SDS011;2218;51.408;7.208;2022-08-19T00:35:06;2.30;;;2.20;;
4409;SDS011;2218;51.408;7.208;2022-08-19T00:37:34;2.30;;;2.20;;
4409;SDS011;2218;51.408;7.208;2022-08-19T00:40:03;2.40;;;2.30;;
4409;SDS011;2218;51.408;7.208;2022-08-19T00:42:33;2.43;;;2.33;;
4409;SDS011;2218;51.408;7.208;2022-08-19T00:45:00;2.57;;;2.47;;
4409;SDS011;2218;51.408;7.208;2022-08-19T00:47:28;2.17;;;2.07;;
4409;SDS011;2218;51.408;7.208;2022-08-19T00:49:56;2.50;;;2.40;;
4409;SDS011;2218;51.408;7.208;2022-08-19T00:52:26;2.00;;;1.90;;
4409;SDS011;2218;51.408;7.208;2022-08-19T00:54:58;2.00;;;1.90;;
4409;SDS011;2218;51.408;7.208;2022-08-19T00:57:27;2.20;;;2.10;;
4409;SDS011;2218;51.408;7.208;2022-08-19T01:00:06;2.47;;;2.37;;
4409;SDS011;2218;51.408;7.208;2022-08-19T01:02:38;2.00;;;1.90;;
4409;SDS011;2218;51.408;7.208;2022-08-19T01:05:08;2.20;;;2.10;;
4409;SDS011;2218;51.408;7.208;2022-08-19T01:07:40;2.20;;;2.10;;
4409;SDS011;2218;51.408;7.208;2022-08-19T01:10:10;2.13;;;2.03;;
4409;SDS011;2218;51.408;7.208;2022-08-19T01:12:41;2.23;;;2.13;;
4409;SDS011;2218;51.408;7.208;2022-08-19T01:15:11;2.47;;;2.37;;
4409;SDS011;2218;51.408;7.208;2022-08-19T01:17:42;2.30;;;2.20;;
4409;SDS011;2218;51.408;7.208;2022-08-19T01:20:11;2.17;;;2.07;;
4409;SDS011;2218;51.408;7.208;2022-08-19T01:22:45;2.30;;;2.20;;
4409;SDS011;2218;51.408;7.208;2022-08-19T01:25:18;2.53;;;2.43;;
4409;SDS011;2218;51.408;7.208;2022-08-19T01:27:51;2.43;;;2.23;;
4409;SDS011;2218;51.408;7.208;2022-08-19T01:30:22;1.90;;;1.80;;
4409;SDS011;2218;51.408;7.208;2022-08-19T01:32:52;1.90;;;1.80;;
4409;SDS011;2218;51.408;7.208;2022-08-19T01:35:20;2.00;;;1.90;;
4409;SDS011;2218;51.408;7.208;2022-08-19T01:37:52;1.83;;;1.73;;
4409;SDS011;2218;51.408;7.208;2022-08-19T01:40:24;2.10;;;2.00;;
4409;SDS011;2218;51.408;7.208;2022-08-19T01:42:54;2.23;;;2.13;;
4409;SDS011;2218;51.408;7.208;2022-08-19T01:45:23;2.10;;;2.00;;
4409;SDS011;2218;51.408;7.208;2022-08-19T01:47:53;2.30;;;2.20;;
4409;SDS011;2218;51.408;7.208;2022-08-19T01:50:21;2.20;;;2.10;;
4409;SDS011;2218;51.408;7.208;2022-08-19T01:52:48;2.10;;;2.00;;
4409;SDS011;2218;51.408;7.208;2022-08-19T01:55:18;2.10;;;2.00;;
4409;SDS011;2218;51.408;7.208;2022-08-19T01:57:49;2.20;;;2.10;;
4409;SDS011;2218;51.408;7.208;2022-08-19T02:00:23;2.13;;;2.03;;
4409;SDS011;2218;51.408;7.208;2022-08-19T02:02:52;2.10;;;2.00;;
4409;SDS011;2218;51.408;7.208;2022-08-19T02:05:19;1.97;;;1.87;;
4409;SDS011;2218;51.408;7.208;2022-08-19T02:07:47;2.23;;;2.13;;
4409;SDS011;2218;51.408;7.208;2022-08-19T02:10:15;2.00;;;1.90;;
4409;SDS011;2218;51.408;7.208;2022-08-19T02:12:47;1.90;;;1.80;;
4409;SDS011;2218;51.408;7.208;2022-08-19T02:15:15;2.10;;;2.00;;
4409;SDS011;2218;51.408;7.208;2022-08-19T02:17:44;2.20;;;2.10;;
4409;SDS011;2218;51.408;7.208;2022-08-19T02:20:12;2.00;;;1.90;;
4409;SDS011;2218;51.408;7.208;2022-08-19T02:22:40;2.03;;;1.93;;
4409;SDS011;2218;51.408;7.208;2022-08-19T02:25:08;1.87;;;1.77;;
4409;SDS011;2218;51.408;7.208;2022-08-19T02:27:38;2.07;;;1.97;;
4409;SDS011;2218;51.408;7.208;2022-08-19T02:30:08;2.07;;;1.97;;
4409;SDS011;2218;51.408;7.208;2022-08-19T02:32:38;2.20;;;2.10;;
4409;SDS011;2218;51.408;7.208;2022-08-19T02:35:07;2.17;;;2.07;;
4409;SDS011;2218;51.408;7.208;2022-08-19T02:37:34;2.03;;;1.93;;
4409;SDS011;2218;51.408;7.208;2022-08-19T02:40:19;2.20;;;2.10;;
4409;SDS011;2218;51.408;7.208;2022-08-19T02:42:47;2.20;;;2.10;;
4409;SDS011;2218;51.408;7.208;2022-08-19T02:45:15;2.00;;;1.90;;
4409;SDS011;2218;51.408;7.208;2022-08-19T02:47:42;2.07;;;1.97;;
4409;SDS011;2218;51.408;7.208;2022-08-19T02:50:09;2.40;;;2.30;;
4409;SDS011;2218;51.408;7.208;2022-08-19T02:52:37;2.60;;;2.50;;
4409;SDS011;2218;51.408;7.208;2022-08-19T02:55:05;2.10;;;2.00;;
4409;SDS011;2218;51.408;7.208;2022-08-19T02:57:33;1.90;;;1.80;;
4409;SDS011;2218;51.408;7.208;2022-08-19T03:00:03;1.90;;;1.80;;
4409;SDS011;2218;51.408;7.208;2022-08-19T03:02:33;2.20;;;2.10;;
4409;SDS011;2218;51.408;7.208;2022-08-19T03:05:02;2.07;;;1.97;;
4409;SDS011;2218;51.408;7.208;2022-08-19T03:07:29;2.00;;;1.90;;
4409;SDS011;2218;51.408;7.208;2022-08-19T03:09:56;2.13;;;2.03;;
4409;SDS011;2218;51.408;7.208;2022-08-19T03:12:23;2.30;;;2.20;;
4409;SDS011;2218;51.408;7.208;2022-08-19T03:14:50;2.03;;;1.93;;
4409;SDS011;2218;51.408;7.208;2022-08-19T03:17:19;2.17;;;2.07;;
4409;SDS011;2218;51.408;7.208;2022-08-19T03:19:46;2.00;;;1.90;;
4409;SDS011;2218;51.408;7.208;2022-08-19T03:22:13;2.20;;;2.10;;
4409;SDS011;2218;51.408;7.208;2022-08-19T03:24:40;1.87;;;1.77;;
4409;SDS011;2218;51.408;7.208;2022-08-19T03:27:08;2.30;;;2.20;;
4409;SDS011;2218;51.408;7.208;2022-08-19T03:29:37;1.90;;;1.80;;
4409;SDS011;2218;51.408;7.208;2022-08-19T03:32:04;2.40;;;2.30;;
4409;SDS011;2218;51.408;7.208;2022-08-19T03:34:34;2.27;;;2.17;;
4409;SDS011;2218;51.408;7.208;2022-08-19T03:37:04;2.20;;;2.10;;
4409;SDS011;2218;51.408;7.208;2022-08-19T03:39:35;1.90;;;1.80;;
4409;SDS011;2218;51.408;7.208;2022-08-19T03:42:03;1.80;;;1.70;;
4409;SDS011;2218;51.408;7.208;2022-08-19T03:44:31;1.97;;;1.87;;
4409;SDS011;2218;51.408;7.208;2022-08-19T03:46:59;2.00;;;1.90;;
4409;SDS011;2218;51.408;7.208;2022-08-19T03:49:27;2.13;;;2.03;;
4409;SDS011;2218;51.408;7.208;2022-08-19T03:51:59;2.70;;;2.50;;
4409;SDS011;2218;51.408;7.208;2022-08-19T03:54:26;2.20;;;2.10;;
4409;SDS011;2218;51.408;7.208;2022-08-19T03:56:55;2.13;;;2.03;;
4409;SDS011;2218;51.408;7.208;2022-08-19T03:59:24;1.80;;;1.70;;
4409;SDS011;2218;51.408;7.208;2022-08-19T04:01:56;1.87;;;1.77;;
4409;SDS011;2218;51.408;7.208;2022-08-19T04:04:25;2.00;;;1.90;;
4409;SDS011;2218;51.408;7.208;2022-08-19T04:06:53;1.73;;;1.63;;
4409;SDS011;2218;51.408;7.208;2022-08-19T04:09:23;2.33;;;2.23;;
4409;SDS011;2218;51.408;7.208;2022-08-19T04:11:55;2.43;;;2.30;;
4409;SDS011;2218;51.408;7.208;2022-08-19T04:14:25;1.80;;;1.70;;
4409;SDS011;2218;51.408;7.208;2022-08-19T04:16:55;2.00;;;1.90;;
4409;SDS011;2218;51.408;7.208;2022-08-19T04:19:23;1.90;;;1.80;;
4409;SDS011;2218;51.408;7.208;2022-08-19T04:21:51;2.20;;;2.10;;
4409;SDS011;2218;51.408;7.208;2022-08-19T04:24:20;2.07;;;1.97;;
4409;SDS011;2218;51.408;7.208;2022-08-19T04:26:49;1.90;;;1.80;;
4409;SDS011;2218;51.408;7.208;2022-08-19T04:29:17;2.43;;;2.33;;
4409;SDS011;2218;51.408;7.208;2022-08-19T04:31:50;2.00;;;1.90;;
4409;SDS011;2218;51.408;7.208;2022-08-19T04:34:20;2.00;;;1.90;;
4409;SDS011;2218;51.408;7.208;2022-08-19T04:36:50;1.97;;;1.87;;
4409;SDS011;2218;51.408;7.208;2022-08-19T04:39:21;2.53;;;2.33;;
4409;SDS011;2218;51.408;7.208;2022-08-19T04:42:13;2.03;;;1.93;;
4409;SDS011;2218;51.408;7.208;2022-08-19T04:44:59;2.20;;;2.10;;
4409;SDS011;2218;51.408;7.208;2022-08-19T04:47:27;1.70;;;1.60;;
4409;SDS011;2218;51.408;7.208;2022-08-19T04:49:56;2.00;;;1.90;;
4409;SDS011;2218;51.408;7.208;2022-08-19T04:52:23;1.90;;;1.80;;
4409;SDS011;2218;51.408;7.208;2022-08-19T04:54:52;1.93;;;1.83;;
4409;SDS011;2218;51.408;7.208;2022-08-19T04:57:20;1.90;;;1.80;;
4409;SDS011;2218;51.408;7.208;2022-08-19T04:59:47;1.90;;;1.80;;
4409;SDS011;2218;51.408;7.208;2022-08-19T05:02:15;1.53;;;1.43;;
4409;SDS011;2218;51.408;7.208;2022-08-19T05:04:42;1.90;;;1.80;;
4409;SDS011;2218;51.408;7.208;2022-08-19T05:07:08;2.00;;;1.90;;
4409;SDS011;2218;51.408;7.208;2022-08-19T05:09:35;1.90;;;1.80;;
4409;SDS011;2218;51.408;7.208;2022-08-19T05:12:04;1.83;;;1.73;;
4409;SDS011;2218;51.408;7.208;2022-08-19T05:14:32;2.00;;;1.90;;
4409;SDS011;2218;51.408;7.208;2022-08-19T05:17:00;1.70;;;1.60;;
4409;SDS011;2218;51.408;7.208;2022-08-19T05:19:28;1.83;;;1.73;;
4409;SDS011;2218;51.408;7.208;2022-08-19T05:22:13;1.50;;;1.40;;
4409;SDS011;2218;51.408;7.208;2022-08-19T05:25:00;1.83;;;1.73;;
4409;SDS011;2218;51.408;7.208;2022-08-19T05:27:32;1.70;;;1.60;;
4409;SDS011;2218;51.408;7.208;2022-08-19T05:30:00;1.70;;;1.60;;
4409;SDS011;2218;51.408;7.208;2022-08-19T05:32:27;1.83;;;1.73;;
4409;SDS011;2218;51.408;7.208;2022-08-19T05:34:54;1.83;;;1.73;;
4409;SDS011;2218;51.408;7.208;2022-08-19T05:37:22;1.80;;;1.70;;
4409;SDS011;2218;51.408;7.208;2022-08-19T05:39:51;1.90;;;1.80;;
4409;SDS011;2218;51.408;7.208;2022-08-19T05:42:19;1.60;;;1.50;;
4409;SDS011;2218;51.408;7.208;2022-08-19T05:44:48;1.80;;;1.70;;
4409;SDS011;2218;51.408;7.208;2022-08-19T05:47:17;1.70;;;1.60;;
4409;SDS011;2218;51.408;7.208;2022-08-19T05:49:45;1.80;;;1.70;;
4409;SDS011;2218;51.408;7.208;2022-08-19T05:52:15;1.53;;;1.43;;
4409;SDS011;2218;51.408;7.208;2022-08-19T05:54:42;1.80;;;1.70;;
4409;SDS011;2218;51.408;7.208;2022-08-19T05:57:12;1.80;;;1.70;;
4409;SDS011;2218;51.408;7.208;2022-08-19T05:59:40;1.80;;;1.70;;
4409;SDS011;2218;51.408;7.208;2022-08-19T06:02:08;1.73;;;1.63;;
4409;SDS011;2218;51.408;7.208;2022-08-19T06:04:35;1.50;;;1.40;;
4409;SDS011;2218;51.408;7.208;2022-08-19T06:07:04;1.53;;;1.43;;
4409;SDS011;2218;51.408;7.208;2022-08-19T06:09:31;1.53;;;1.43;;
4409;SDS011;2218;51.408;7.208;2022-08-19T06:11:58;1.30;;;1.20;;
4409;SDS011;2218;51.408;7.208;2022-08-19T06:14:28;1.00;;;1.00;;
4409;SDS011;2218;51.408;7.208;2022-08-19T06:16:59;1.43;;;1.33;;
4409;SDS011;2218;51.408;7.208;2022-08-19T06:19:29;1.40;;;1.30;;
4409;SDS011;2218;51.408;7.208;2022-08-19T06:21:58;1.97;;;1.87;;
4409;SDS011;2218;51.408;7.208;2022-08-19T06:24:27;3.30;;;1.20;;
4409;SDS011;2218;51.408;7.208;2022-08-19T06:26:57;1.20;;;1.10;;
4409;SDS011;2218;51.408;7.208;2022-08-19T06:29:26;1.40;;;1.30;;
4409;SDS011;2218;51.408;7.208;2022-08-19T06:31:55;1.47;;;1.37;;
4409;SDS011;2218;51.408;7.208;2022-08-19T06:34:26;1.20;;;1.10;;
4409;SDS011;2218;51.408;7.208;2022-08-19T06:36:56;1.20;;;1.10;;
4409;SDS011;2218;51.408;7.208;2022-08-19T06:39:28;1.50;;;1.40;;
4409;SDS011;2218;51.408;7.208;2022-08-19T06:41:58;1.40;;;1.30;;
4409;SDS011;2218;51.408;7.208;2022-08-19T06:44:29;1.60;;;1.50;;
4409;SDS011;2218;51.408;7.208;2022-08-19T06:47:00;1.30;;;1.20;;
4409;SDS011;2218;51.408;7.208;2022-08-19T06:49:29;1.47;;;1.37;;
4409;SDS011;2218;51.408;7.208;2022-08-19T06:51:57;1.60;;;1.50;;
4409;SDS011;2218;51.408;7.208;2022-08-19T06:54:25;1.40;;;1.30;;
4409;SDS011;2218;51.408;7.208;2022-08-19T06:56:54;2.63;;;2.30;;
4409;SDS011;2218;51.408;7.208;2022-08-19T06:59:23;2.77;;;2.57;;
4409;SDS011;2218;51.408;7.208;2022-08-19T07:01:53;1.60;;;1.50;;
4409;SDS011;2218;51.408;7.208;2022-08-19T07:04:24;5.33;;;4.30;;
4409;SDS011;2218;51.408;7.208;2022-08-19T07:06:57;4.63;;;4.20;;
4409;SDS011;2218;51.408;7.208;2022-08-19T07:09:27;2.20;;;2.10;;
4409;SDS011;2218;51.408;7.208;2022-08-19T07:11:54;1.73;;;1.63;;
4409;SDS011;2218;51.408;7.208;2022-08-19T07:14:23;8.47;;;7.60;;
4409;SDS011;2218;51.408;7.208;2022-08-19T07:16:54;7.50;;;6.80;;
4409;SDS011;2218;51.408;7.208;2022-08-19T07:19:24;2.70;;;2.50;;
4409;SDS011;2218;51.408;7.208;2022-08-19T07:21:52;1.70;;;1.60;;
4409;SDS011;2218;51.408;7.208;2022-08-19T07:24:23;7.60;;;5.20;;
4409;SDS011;2218;51.408;7.208;2022-08-19T07:26:53;2.60;;;1.80;;
4409;SDS011;2218;51.408;7.208;2022-08-19T07:29:26;1.90;;;1.80;;
4409;SDS011;2218;51.408;7.208;2022-08-19T07:31:55;1.57;;;1.47;;
4409;SDS011;2218;51.408;7.208;2022-08-19T07:34:23;1.67;;;1.57;;
4409;SDS011;2218;51.408;7.208;2022-08-19T07:36:52;2.33;;;2.23;;
4409;SDS011;2218;51.408;7.208;2022-08-19T07:39:22;3.60;;;3.27;;
4409;SDS011;2218;51.408;7.208;2022-08-19T07:41:52;1.57;;;1.47;;
4409;SDS011;2218;51.408;7.208;2022-08-19T07:44:20;1.73;;;1.63;;
4409;SDS011;2218;51.408;7.208;2022-08-19T07:46:48;3.07;;;2.80;;
4409;SDS011;2218;51.408;7.208;2022-08-19T07:49:19;1.60;;;1.50;;
4409;SDS011;2218;51.408;7.208;2022-08-19T07:51:47;2.10;;;2.00;;
4409;SDS011;2218;51.408;7.208;2022-08-19T07:54:18;2.33;;;1.80;;
4409;SDS011;2218;51.408;7.208;2022-08-19T07:56:49;1.60;;;1.50;;
4409;SDS011;2218;51.408;7.208;2022-08-19T07:59:16;1.70;;;1.60;;
4409;SDS011;2218;51.408;7.208;2022-08-19T08:01:43;2.23;;;2.03;;
4409;SDS011;2218;51.408;7.208;2022-08-19T08:04:11;8.20;;;2.80;;
4409;SDS011;2218;51.408;7.208;2022-08-19T08:06:55;9.23;;;6.10;;
4409;SDS011;2218;51.408;7.208;2022-08-19T08:09:42;7.97;;;6.87;;
4409;SDS011;2218;51.408;7.208;2022-08-19T08:12:10;9.60;;;8.03;;
4409;SDS011;2218;51.408;7.208;2022-08-19T08:14:42;17.30;;;7.80;;
4409;SDS011;2218;51.408;7.208;2022-08-19T08:17:14;10.20;;;7.80;;
4409;SDS011;2218;51.408;7.208;2022-08-19T08:19:43;6.03;;;5.50;;
4409;SDS011;2218;51.408;7.208;2022-08-19T08:22:13;7.83;;;5.70;;
4409;SDS011;2218;51.408;7.208;2022-08-19T08:25:01;11.30;;;7.37;;
4409;SDS011;2218;51.408;7.208;2022-08-19T08:27:34;7.07;;;2.97;;
4409;SDS011;2218;51.408;7.208;2022-08-19T08:30:05;7.23;;;5.93;;
4409;SDS011;2218;51.408;7.208;2022-08-19T08:32:35;4.23;;;3.53;;
4409;SDS011;2218;51.408;7.208;2022-08-19T08:35:02;3.23;;;2.40;;
4409;SDS011;2218;51.408;7.208;2022-08-19T08:37:30;2.27;;;2.17;;
4409;SDS011;2218;51.408;7.208;2022-08-19T08:39:58;1.67;;;1.57;;
4409;SDS011;2218;51.408;7.208;2022-08-19T08:42:27;1.80;;;1.70;;
4409;SDS011;2218;51.408;7.208;2022-08-19T08:45:00;1.80;;;1.70;;
4409;SDS011;2218;51.408;7.208;2022-08-19T08:47:36;1.70;;;1.60;;
4409;SDS011;2218;51.408;7.208;2022-08-19T08:50:09;1.37;;;1.27;;
4409;SDS011;2218;51.408;7.208;2022-08-19T08:52:45;1.63;;;1.53;;
4409;SDS011;2218;51.408;7.208;2022-08-19T08:55:17;2.90;;;1.50;;
4409;SDS011;2218;51.408;7.208;2022-08-19T08:57:51;6.17;;;1.37;;
4409;SDS011;2218;51.408;7.208;2022-08-19T09:00:26;1.63;;;1.50;;
4409;SDS011;2218;51.408;7.208;2022-08-19T09:02:58;1.40;;;1.30;;
4409;SDS011;2218;51.408;7.208;2022-08-19T09:05:30;1.50;;;1.40;;
4409;SDS011;2218;51.408;7.208;2022-08-19T09:08:13;1.70;;;1.60;;
4409;SDS011;2218;51.408;7.208;2022-08-19T09:10:55;4.70;;;1.63;;
4409;SDS011;2218;51.408;7.208;2022-08-19T09:13:26;1.57;;;1.47;;
4409;SDS011;2218;51.408;7.208;2022-08-19T09:16:05;1.70;;;1.60;;
4409;SDS011;2218;51.408;7.208;2022-08-19T09:18:38;1.50;;;1.40;;
4409;SDS011;2218;51.408;7.208;2022-08-19T09:21:08;1.70;;;1.60;;
4409;SDS011;2218;51.408;7.208;2022-08-19T09:23:35;1.63;;;1.53;;
4409;SDS011;2218;51.408;7.208;2022-08-19T09:26:06;1.70;;;1.60;;
4409;SDS011;2218;51.408;7.208;2022-08-19T09:28:36;1.57;;;1.47;;
4409;SDS011;2218;51.408;7.208;2022-08-19T09:31:03;1.57;;;1.47;;
4409;SDS011;2218;51.408;7.208;2022-08-19T09:33:30;1.67;;;1.57;;
4409;SDS011;2218;51.408;7.208;2022-08-19T09:36:05;2.30;;;2.20;;
4409;SDS011;2218;51.408;7.208;2022-08-19T09:38:35;1.90;;;1.80;;
4409;SDS011;2218;51.408;7.208;2022-08-19T09:41:06;1.90;;;1.80;;
4409;SDS011;2218;51.408;7.208;2022-08-19T09:43:39;1.80;;;1.70;;
4409;SDS011;2218;51.408;7.208;2022-08-19T09:46:08;2.10;;;2.00;;
4409;SDS011;2218;51.408;7.208;2022-08-19T09:48:35;3.13;;;1.50;;
4409;SDS011;2218;51.408;7.208;2022-08-19T09:51:03;1.90;;;1.80;;
4409;SDS011;2218;51.408;7.208;2022-08-19T09:53:33;2.63;;;1.73;;
4409;SDS011;2218;51.408;7.208;2022-08-19T09:56:00;2.10;;;1.90;;
4409;SDS011;2218;51.408;7.208;2022-08-19T09:58:27;1.60;;;1.50;;
4409;SDS011;2218;51.408;7.208;2022-08-19T10:00:56;3.03;;;1.83;;
4409;SDS011;2218;51.408;7.208;2022-08-19T10:03:25;1.90;;;1.80;;
4409;SDS011;2218;51.408;7.208;2022-08-19T10:05:55;2.40;;;1.87;;
4409;SDS011;2218;51.408;7.208;2022-08-19T10:08:29;1.80;;;1.70;;
4409;SDS011;2218;51.408;7.208;2022-08-19T10:11:01;4.00;;;2.20;;
4409;SDS011;2218;51.408;7.208;2022-08-19T10:13:30;1.80;;;1.70;;
4409;SDS011;2218;51.408;7.208;2022-08-19T10:16:03;2.00;;;1.90;;
4409;SDS011;2218;51.408;7.208;2022-08-19T10:18:33;3.03;;;2.17;;
4409;SDS011;2218;51.408;7.208;2022-08-19T10:21:03;2.00;;;1.90;;
4409;SDS011;2218;51.408;7.208;2022-08-19T10:23:36;2.27;;;2.17;;
4409;SDS011;2218;51.408;7.208;2022-08-19T10:26:05;2.10;;;2.00;;
4409;SDS011;2218;51.408;7.208;2022-08-19T10:28:33;1.93;;;1.83;;
4409;SDS011;2218;51.408;7.208;2022-08-19T10:31:07;1.83;;;1.73;;
4409;SDS011;2218;51.408;7.208;2022-08-19T10:33:37;2.00;;;1.90;;
4409;SDS011;2218;51.408;7.208;2022-08-19T10:36:06;1.70;;;1.60;;
4409;SDS011;2218;51.408;7.208;2022-08-19T10:38:37;2.00;;;1.90;;
4409;SDS011;2218;51.408;7.208;2022-08-19T10:41:08;1.80;;;1.70;;
4409;SDS011;2218;51.408;7.208;2022-08-19T10:43:38;2.13;;;2.03;;
4409;SDS011;2218;51.408;7.208;2022-08-19T10:46:07;1.80;;;1.70;;
4409;SDS011;2218;51.408;7.208;2022-08-19T10:48:36;2.50;;;1.80;;
4409;SDS011;2218;51.408;7.208;2022-08-19T10:51:04;1.83;;;1.73;;
4409;SDS011;2218;51.408;7.208;2022-08-19T10:54:01;2.13;;;2.03;;
4409;SDS011;2218;51.408;7.208;2022-08-19T10:56:29;2.40;;;1.93;;
4409;SDS011;2218;51.408;7.208;2022-08-19T10:59:15;2.83;;;2.63;;
4409;SDS011;2218;51.408;7.208;2022-08-19T11:01:45;1.97;;;1.87;;
4409;SDS011;2218;51.408;7.208;2022-08-19T11:04:12;2.10;;;2.00;;
4409;SDS011;2218;51.408;7.208;2022-08-19T11:06:42;2.13;;;2.03;;
4409;SDS011;2218;51.408;7.208;2022-08-19T11:09:12;2.50;;;2.40;;
4409;SDS011;2218;51.408;7.208;2022-08-19T11:11:41;2.30;;;2.20;;
4409;SDS011;2218;51.408;7.208;2022-08-19T11:14:09;2.37;;;2.27;;
4409;SDS011;2218;51.408;7.208;2022-08-19T11:16:39;2.20;;;2.10;;
4409;SDS011;2218;51.408;7.208;2022-08-19T11:19:10;2.33;;;2.23;;
4409;SDS011;2218;51.408;7.208;2022-08-19T11:21:40;3.43;;;2.50;;
4409;SDS011;2218;51.408;7.208;2022-08-19T11:24:11;2.27;;;2.17;;
4409;SDS011;2218;51.408;7.208;2022-08-19T11:26:43;2.07;;;1.97;;
4409;SDS011;2218;51.408;7.208;2022-08-19T11:29:11;2.13;;;2.03;;
4409;SDS011;2218;51.408;7.208;2022-08-19T11:31:40;2.00;;;1.90;;
4409;SDS011;2218;51.408;7.208;2022-08-19T11:34:12;2.40;;;2.30;;
4409;SDS011;2218;51.408;7.208;2022-08-19T11:36:43;2.07;;;1.97;;
4409;SDS011;2218;51.408;7.208;2022-08-19T11:39:14;2.20;;;2.10;;
4409;SDS011;2218;51.408;7.208;2022-08-19T11:41:44;2.10;;;2.00;;
4409;SDS011;2218;51.408;7.208;2022-08-19T11:44:12;2.27;;;2.17;;
4409;SDS011;2218;51.408;7.208;2022-08-19T11:46:39;1.90;;;1.80;;
4409;SDS011;2218;51.408;7.208;2022-08-19T11:49:12;2.13;;;2.03;;
4409;SDS011;2218;51.408;7.208;2022-08-19T11:51:40;1.97;;;1.87;;
4409;SDS011;2218;51.408;7.208;2022-08-19T11:54:09;2.40;;;2.30;;
4409;SDS011;2218;51.408;7.208;2022-08-19T11:56:39;2.13;;;2.00;;
4409;SDS011;2218;51.408;7.208;2022-08-19T11:59:07;2.30;;;2.20;;
4409;SDS011;2218;51.408;7.208;2022-08-19T12:01:34;2.57;;;2.47;;
4409;SDS011;2218;51.408;7.208;2022-08-19T12:04:01;3.00;;;2.37;;
4409;SDS011;2218;51.408;7.208;2022-08-19T12:06:32;2.20;;;2.10;;
4409;SDS011;2218;51.408;7.208;2022-08-19T12:09:01;2.43;;;2.33;;
4409;SDS011;2218;51.408;7.208;2022-08-19T12:11:32;2.20;;;2.10;;
4409;SDS011;2218;51.408;7.208;2022-08-19T12:13:59;2.30;;;2.20;;
4409;SDS011;2218;51.408;7.208;2022-08-19T12:16:28;2.40;;;2.30;;
4409;SDS011;2218;51.408;7.208;2022-08-19T12:18:56;2.40;;;2.30;;
4409;SDS011;2218;51.408;7.208;2022-08-19T12:21:28;2.10;;;2.00;;
4409;SDS011;2218;51.408;7.208;2022-08-19T12:24:00;2.37;;;2.27;;
4409;SDS011;2218;51.408;7.208;2022-08-19T12:26:30;2.00;;;1.90;;
4409;SDS011;2218;51.408;7.208;2022-08-19T12:28:58;2.13;;;2.03;;
4409;SDS011;2218;51.408;7.208;2022-08-19T12:31:26;1.83;;;1.73;;
4409;SDS011;2218;51.408;7.208;2022-08-19T12:33:54;2.20;;;2.10;;
4409;SDS011;2218;51.408;7.208;2022-08-19T12:36:21;2.20;;;2.07;;
4409;SDS011;2218;51.408;7.208;2022-08-19T12:38:51;2.40;;;2.30;;
4409;SDS011;2218;51.408;7.208;2022-08-19T12:41:19;2.47;;;2.27;;
4409;SDS011;2218;51.408;7.208;2022-08-19T12:43:47;2.17;;;2.07;;
4409;SDS011;2218;51.408;7.208;2022-08-19T12:46:15;2.20;;;2.10;;
4409;SDS011;2218;51.408;7.208;2022-08-19T12:48:44;2.40;;;2.30;;
4409;SDS011;2218;51.408;7.208;2022-08-19T12:51:13;2.00;;;1.90;;
4409;SDS011;2218;51.408;7.208;2022-08-19T12:53:43;2.23;;;2.13;;
4409;SDS011;2218;51.408;7.208;2022-08-19T12:56:11;2.10;;;2.00;;
4409;SDS011;2218;51.408;7.208;2022-08-19T12:58:40;2.40;;;2.30;;
4409;SDS011;2218;51.408;7.208;2022-08-19T13:01:09;2.23;;;2.13;;
4409;SDS011;2218;51.408;7.208;2022-08-19T13:03:39;2.07;;;1.97;;
4409;SDS011;2218;51.408;7.208;2022-08-19T13:06:08;2.13;;;2.03;;
4409;SDS011;2218;51.408;7.208;2022-08-19T13:08:36;2.00;;;1.90;;
4409;SDS011;2218;51.408;7.208;2022-08-19T13:11:08;2.30;;;2.20;;
4409;SDS011;2218;51.408;7.208;2022-08-19T13:13:41;2.47;;;2.37;;
4409;SDS011;2218;51.408;7.208;2022-08-19T13:16:09;2.07;;;1.97;;
4409;SDS011;2218;51.408;7.208;2022-08-19T13:18:39;2.03;;;1.93;;
4409;SDS011;2218;51.408;7.208;2022-08-19T13:21:08;2.00;;;1.90;;
4409;SDS011;2218;51.408;7.208;2022-08-19T13:23:38;2.63;;;2.53;;
4409;SDS011;2218;51.408;7.208;2022-08-19T13:26:06;2.50;;;2.20;;
4409;SDS011;2218;51.408;7.208;2022-08-19T13:28:38;2.23;;;2.13;;
4409;SDS011;2218;51.408;7.208;2022-08-19T13:31:25;2.67;;;2.50;;
4409;SDS011;2218;51.408;7.208;2022-08-19T13:34:12;2.13;;;2.03;;
4409;SDS011;2218;51.408;7.208;2022-08-19T13:36:41;2.30;;;2.20;;
4409;SDS011;2218;51.408;7.208;2022-08-19T13:39:09;2.40;;;2.30;;
4409;SDS011;2218;51.408;7.208;2022-08-19T13:41:36;2.50;;;2.40;;
4409;SDS011;2218;51.408;7.208;2022-08-19T13:44:14;2.17;;;2.07;;
4409;SDS011;2218;51.408;7.208;2022-08-19T13:46:43;2.40;;;2.30;;
4409;SDS011;2218;51.408;7.208;2022-08-19T13:49:10;2.47;;;2.37;;
4409;SDS011;2218;51.408;7.208;2022-08-19T13:51:40;2.30;;;2.20;;
4409;SDS011;2218;51.408;7.208;2022-08-19T13:54:08;2.37;;;2.27;;
4409;SDS011;2218;51.408;7.208;2022-08-19T13:56:39;2.30;;;2.20;;
4409;SDS011;2218;51.408;7.208;2022-08-19T13:59:07;2.43;;;2.33;;
4409;SDS011;2218;51.408;7.208;2022-08-19T14:01:36;2.30;;;2.20;;
4409;SDS011;2218;51.408;7.208;2022-08-19T14:04:04;2.10;;;2.00;;
4409;SDS011;2218;51.408;7.208;2022-08-19T14:06:31;2.30;;;2.20;;
4409;SDS011;2218;51.408;7.208;2022-08-19T14:08:58;2.23;;;2.13;;
4409;SDS011;2218;51.408;7.208;2022-08-19T14:11:27;2.30;;;2.20;;
4409;SDS011;2218;51.408;7.208;2022-08-19T14:13:54;2.20;;;2.10;;
4409;SDS011;2218;51.408;7.208;2022-08-19T14:16:21;2.00;;;1.90;;
4409;SDS011;2218;51.408;7.208;2022-08-19T14:18:50;2.37;;;2.27;;
4409;SDS011;2218;51.408;7.208;2022-08-19T14:21:19;2.40;;;2.30;;
4409;SDS011;2218;51.408;7.208;2022-08-19T14:23:48;2.43;;;2.33;;
4409;SDS011;2218;51.408;7.208;2022-08-19T14:26:16;2.30;;;2.20;;
4409;SDS011;2218;51.408;7.208;2022-08-19T14:28:47;2.40;;;2.30;;
4409;SDS011;2218;51.408;7.208;2022-08-19T14:31:15;2.43;;;2.33;;
4409;SDS011;2218;51.408;7.208;2022-08-19T14:33:44;2.23;;;2.13;;
4409;SDS011;2218;51.408;7.208;2022-08-19T14:36:14;2.20;;;2.10;;
4409;SDS011;2218;51.408;7.208;2022-08-19T14:38:42;2.43;;;2.33;;
4409;SDS011;2218;51.408;7.208;2022-08-19T14:41:10;2.60;;;2.50;;
4409;SDS011;2218;51.408;7.208;2022-08-19T14:43:42;2.80;;;2.70;;
4409;SDS011;2218;51.408;7.208;2022-08-19T14:46:11;2.30;;;2.20;;
4409;SDS011;2218;51.408;7.208;2022-08-19T14:48:40;2.30;;;2.20;;
4409;SDS011;2218;51.408;7.208;2022-08-19T14:51:07;2.10;;;2.00;;
4409;SDS011;2218;51.408;7.208;2022-08-19T14:53:36;2.33;;;2.23;;
4409;SDS011;2218;51.408;7.208;2022-08-19T14:56:06;2.40;;;2.30;;
4409;SDS011;2218;51.408;7.208;2022-08-19T14:58:35;2.53;;;2.43;;
4409;SDS011;2218;51.408;7.208;2022-08-19T15:01:02;2.40;;;2.30;;
4409;SDS011;2218;51.408;7.208;2022-08-19T15:03:30;2.20;;;2.10;;
4409;SDS011;2218;51.408;7.208;2022-08-19T15:05:58;2.77;;;2.57;;
4409;SDS011;2218;51.408;7.208;2022-08-19T15:08:27;2.13;;;2.03;;
4409;SDS011;2218;51.408;7.208;2022-08-19T15:10:58;2.50;;;2.40;;
4409;SDS011;2218;51.408;7.208;2022-08-19T15:13:27;2.83;;;2.73;;
4409;SDS011;2218;51.408;7.208;2022-08-19T15:15:55;2.33;;;2.20;;
4409;SDS011;2218;51.408;7.208;2022-08-19T15:18:23;2.50;;;2.40;;
4409;SDS011;2218;51.408;7.208;2022-08-19T15:20:50;1.97;;;1.87;;
4409;SDS011;2218;51.408;7.208;2022-08-19T15:23:18;2.13;;;2.03;;
4409;SDS011;2218;51.408;7.208;2022-08-19T15:25:46;2.23;;;2.13;;
4409;SDS011;2218;51.408;7.208;2022-08-19T15:28:18;2.40;;;2.30;;
4409;SDS011;2218;51.408;7.208;2022-08-19T15:30:45;2.10;;;2.00;;